sensor_id;sensor_type;location;lat;lon;timestamp;temperature;humidity
36002;DHT22;22070;50.922;5.430;2023-04-12T00:00:11;10.20;99.90
36002;DHT22;22070;50.922;5.430;2023-04-12T00:02:38;10.20;99.90
36002;DHT22;22070;50.922;5.430;2023-04-12T00:05:04;10.20;99.90
36002;DHT22;22070;50.922;5.430;2023-04-12T00:07:30;10.10;99.90
36002;DHT22;22070;50.922;5.430;2023-04-12T00:09:56;10.20;99.90
36002;DHT22;22070;50.922;5.430;2023-04-12T00:12:22;10.20;99.90
36002;DHT22;22070;50.922;5.430;2023-04-12T00:14:48;10.10;99.90
36002;DHT22;22070;50.922;5.430;2023-04-12T00:17:14;10.10;99.90
36002;DHT22;22070;50.922;5.430;2023-04-12T00:19:39;10.10;99.90
36002;DHT22;22070;50.922;5.430;2023-04-12T00:22:10;10.10;99.90
36002;DHT22;22070;50.922;5.430;2023-04-12T00:24:38;10.00;99.90
36002;DHT22;22070;50.922;5.430;2023-04-12T00:27:04;10.10;99.90
36002;DHT22;22070;50.922;5.430;2023-04-12T00:29:31;10.10;99.90
36002;DHT22;22070;50.922;5.430;2023-04-12T00:31:57;10.00;99.90
36002;DHT22;22070;50.922;5.430;2023-04-12T00:34:24;10.00;99.90
36002;DHT22;22070;50.922;5.430;2023-04-12T00:36:49;10.00;99.90
36002;DHT22;22070;50.922;5.430;2023-04-12T00:39:15;10.00;99.90
36002;DHT22;22070;50.922;5.430;2023-04-12T00:41:41;10.00;99.90
36002;DHT22;22070;50.922;5.430;2023-04-12T00:44:06;9.90;99.90
36002;DHT22;22070;50.922;5.430;2023-04-12T00:46:32;9.80;99.90
36002;DHT22;22070;50.922;5.430;2023-04-12T00:48:58;9.80;99.90
36002;DHT22;22070;50.922;5.430;2023-04-12T00:51:25;9.80;99.90
36002;DHT22;22070;50.922;5.430;2023-04-12T00:53:55;9.80;99.90
36002;DHT22;22070;50.922;5.430;2023-04-12T00:56:25;9.80;99.90
36002;DHT22;22070;50.922;5.430;2023-04-12T00:58:53;9.80;99.90
36002;DHT22;22070;50.922;5.430;2023-04-12T01:01:19;9.80;99.90
36002;DHT22;22070;50.922;5.430;2023-04-12T01:03:46;9.80;99.90
36002;DHT22;22070;50.922;5.430;2023-04-12T01:06:20;9.80;99.90
36002;DHT22;22070;50.922;5.430;2023-04-12T01:11:46;9.70;99.90
36002;DHT22;22070;50.922;5.430;2023-04-12T01:14:17;9.80;99.90
36002;DHT22;22070;50.922;5.430;2023-04-12T01:16:50;9.90;99.90
36002;DHT22;22070;50.922;5.430;2023-04-12T01:28:14;9.90;99.90
36002;DHT22;22070;50.922;5.430;2023-04-12T01:30:42;9.90;99.90
36002;DHT22;22070;50.922;5.430;2023-04-12T01:33:10;9.90;99.90
36002;DHT22;22070;50.922;5.430;2023-04-12T01:35:36;9.90;99.90
36002;DHT22;22070;50.922;5.430;2023-04-12T01:38:03;10.00;99.90
36002;DHT22;22070;50.922;5.430;2023-04-12T01:40:30;10.00;99.90
36002;DHT22;22070;50.922;5.430;2023-04-12T01:43:25;9.90;99.90
36002;DHT22;22070;50.922;5.430;2023-04-12T01:45:51;9.80;99.90
36002;DHT22;22070;50.922;5.430;2023-04-12T01:48:17;9.90;99.90
36002;DHT22;22070;50.922;5.430;2023-04-12T01:56:06;9.80;99.90
36002;DHT22;22070;50.922;5.430;2023-04-12T01:58:33;9.80;99.90
36002;DHT22;22070;50.922;5.430;2023-04-12T02:01:00;9.70;99.90
36002;DHT22;22070;50.922;5.430;2023-04-12T02:03:27;9.70;99.90
36002;DHT22;22070;50.922;5.430;2023-04-12T02:05:56;9.80;99.90
36002;DHT22;22070;50.922;5.430;2023-04-12T02:08:23;9.80;99.90
36002;DHT22;22070;50.922;5.430;2023-04-12T02:10:49;9.70;99.90
36002;DHT22;22070;50.922;5.430;2023-04-12T02:13:15;9.70;99.90
36002;DHT22;22070;50.922;5.430;2023-04-12T02:15:42;9.70;99.90
36002;DHT22;22070;50.922;5.430;2023-04-12T02:18:08;9.70;99.90
36002;DHT22;22070;50.922;5.430;2023-04-12T02:20:34;9.70;99.90
36002;DHT22;22070;50.922;5.430;2023-04-12T02:23:00;9.60;99.90
36002;DHT22;22070;50.922;5.430;2023-04-12T02:25:26;9.50;99.90
36002;DHT22;22070;50.922;5.430;2023-04-12T02:27:52;9.60;99.90
36002;DHT22;22070;50.922;5.430;2023-04-12T02:30:17;9.60;99.90
36002;DHT22;22070;50.922;5.430;2023-04-12T02:32:44;9.50;99.90
36002;DHT22;22070;50.922;5.430;2023-04-12T02:35:10;9.60;99.90
36002;DHT22;22070;50.922;5.430;2023-04-12T02:37:37;9.50;99.90
36002;DHT22;22070;50.922;5.430;2023-04-12T02:40:04;9.60;99.90
36002;DHT22;22070;50.922;5.430;2023-04-12T02:42:31;9.50;99.90
36002;DHT22;22070;50.922;5.430;2023-04-12T02:44:57;9.60;99.90
36002;DHT22;22070;50.922;5.430;2023-04-12T02:47:23;9.60;99.90
36002;DHT22;22070;50.922;5.430;2023-04-12T02:49:53;9.60;99.90
36002;DHT22;22070;50.922;5.430;2023-04-12T02:52:18;9.60;99.90
36002;DHT22;22070;50.922;5.430;2023-04-12T02:54:44;9.70;99.90
36002;DHT22;22070;50.922;5.430;2023-04-12T02:57:10;9.60;99.90
36002;DHT22;22070;50.922;5.430;2023-04-12T02:59:40;9.60;99.90
36002;DHT22;22070;50.922;5.430;2023-04-12T03:02:07;9.60;99.90
36002;DHT22;22070;50.922;5.430;2023-04-12T03:04:32;9.80;99.90
36002;DHT22;22070;50.922;5.430;2023-04-12T03:06:59;9.70;99.90
36002;DHT22;22070;50.922;5.430;2023-04-12T03:09:25;9.70;99.90
36002;DHT22;22070;50.922;5.430;2023-04-12T03:11:51;9.80;99.90
36002;DHT22;22070;50.922;5.430;2023-04-12T03:14:17;9.80;99.90
36002;DHT22;22070;50.922;5.430;2023-04-12T03:16:43;10.00;99.90
36002;DHT22;22070;50.922;5.430;2023-04-12T03:19:08;9.80;99.90
36002;DHT22;22070;50.922;5.430;2023-04-12T03:21:34;9.70;99.90
36002;DHT22;22070;50.922;5.430;2023-04-12T03:24:01;9.70;99.90
36002;DHT22;22070;50.922;5.430;2023-04-12T03:26:28;9.80;99.90
36002;DHT22;22070;50.922;5.430;2023-04-12T03:29:00;9.60;99.90
36002;DHT22;22070;50.922;5.430;2023-04-12T03:31:26;9.50;99.90
36002;DHT22;22070;50.922;5.430;2023-04-12T03:33:52;9.60;99.90
36002;DHT22;22070;50.922;5.430;2023-04-12T03:36:18;9.60;99.90
36002;DHT22;22070;50.922;5.430;2023-04-12T03:38:46;9.60;99.90
36002;DHT22;22070;50.922;5.430;2023-04-12T03:41:12;9.70;99.90
36002;DHT22;22070;50.922;5.430;2023-04-12T03:43:38;9.80;99.90
36002;DHT22;22070;50.922;5.430;2023-04-12T03:46:04;9.70;99.90
36002;DHT22;22070;50.922;5.430;2023-04-12T03:48:33;9.80;99.90
36002;DHT22;22070;50.922;5.430;2023-04-12T03:50:59;9.50;99.90
36002;DHT22;22070;50.922;5.430;2023-04-12T03:53:33;9.50;99.90
36002;DHT22;22070;50.922;5.430;2023-04-12T03:55:59;9.60;99.90
36002;DHT22;22070;50.922;5.430;2023-04-12T03:58:25;9.60;99.90
36002;DHT22;22070;50.922;5.430;2023-04-12T04:00:51;9.60;99.90
36002;DHT22;22070;50.922;5.430;2023-04-12T04:03:17;9.60;99.90
36002;DHT22;22070;50.922;5.430;2023-04-12T04:05:45;10.20;99.90
36002;DHT22;22070;50.922;5.430;2023-04-12T04:08:12;9.60;99.90
36002;DHT22;22070;50.922;5.430;2023-04-12T04:10:38;9.50;99.90
36002;DHT22;22070;50.922;5.430;2023-04-12T04:13:04;9.50;99.90
36002;DHT22;22070;50.922;5.430;2023-04-12T04:15:30;9.50;99.90
36002;DHT22;22070;50.922;5.430;2023-04-12T04:17:55;9.60;99.90
36002;DHT22;22070;50.922;5.430;2023-04-12T04:20:21;9.70;99.90
36002;DHT22;22070;50.922;5.430;2023-04-12T04:22:47;9.60;99.90
36002;DHT22;22070;50.922;5.430;2023-04-12T04:25:17;9.60;99.90
36002;DHT22;22070;50.922;5.430;2023-04-12T04:27:44;9.60;99.90
36002;DHT22;22070;50.922;5.430;2023-04-12T04:30:13;9.60;99.90
36002;DHT22;22070;50.922;5.430;2023-04-12T04:32:40;9.60;99.90
36002;DHT22;22070;50.922;5.430;2023-04-12T04:35:06;9.50;99.90
36002;DHT22;22070;50.922;5.430;2023-04-12T04:37:32;9.50;99.90
36002;DHT22;22070;50.922;5.430;2023-04-12T04:40:02;9.60;99.90
36002;DHT22;22070;50.922;5.430;2023-04-12T04:42:38;9.60;99.90
36002;DHT22;22070;50.922;5.430;2023-04-12T04:45:04;9.60;99.90
36002;DHT22;22070;50.922;5.430;2023-04-12T04:47:40;10.00;99.90
36002;DHT22;22070;50.922;5.430;2023-04-12T04:50:06;9.70;99.90
36002;DHT22;22070;50.922;5.430;2023-04-12T04:52:32;9.80;99.90
36002;DHT22;22070;50.922;5.430;2023-04-12T04:55:02;9.70;99.90
36002;DHT22;22070;50.922;5.430;2023-04-12T04:57:28;9.60;99.90
36002;DHT22;22070;50.922;5.430;2023-04-12T04:59:53;9.60;99.90
36002;DHT22;22070;50.922;5.430;2023-04-12T05:02:19;9.60;99.90
36002;DHT22;22070;50.922;5.430;2023-04-12T05:04:45;9.50;99.90
36002;DHT22;22070;50.922;5.430;2023-04-12T05:07:11;9.60;99.90
36002;DHT22;22070;50.922;5.430;2023-04-12T05:09:39;9.50;99.90
36002;DHT22;22070;50.922;5.430;2023-04-12T05:12:05;9.50;99.90
36002;DHT22;22070;50.922;5.430;2023-04-12T05:14:31;9.50;99.90
36002;DHT22;22070;50.922;5.430;2023-04-12T05:16:57;9.60;99.90
36002;DHT22;22070;50.922;5.430;2023-04-12T05:19:23;9.50;99.90
36002;DHT22;22070;50.922;5.430;2023-04-12T05:21:50;9.60;99.90
36002;DHT22;22070;50.922;5.430;2023-04-12T05:24:15;9.60;99.90
36002;DHT22;22070;50.922;5.430;2023-04-12T05:26:41;9.60;99.90
36002;DHT22;22070;50.922;5.430;2023-04-12T05:29:07;9.60;99.90
36002;DHT22;22070;50.922;5.430;2023-04-12T05:31:32;9.50;99.90
36002;DHT22;22070;50.922;5.430;2023-04-12T05:33:58;9.60;99.90
36002;DHT22;22070;50.922;5.430;2023-04-12T05:36:24;9.50;99.90
36002;DHT22;22070;50.922;5.430;2023-04-12T05:38:50;9.60;99.90
36002;DHT22;22070;50.922;5.430;2023-04-12T05:41:16;9.60;99.90
36002;DHT22;22070;50.922;5.430;2023-04-12T05:43:42;9.70;99.90
36002;DHT22;22070;50.922;5.430;2023-04-12T05:46:07;9.60;99.90
36002;DHT22;22070;50.922;5.430;2023-04-12T05:48:33;9.60;99.90
36002;DHT22;22070;50.922;5.430;2023-04-12T05:51:00;9.70;99.90
36002;DHT22;22070;50.922;5.430;2023-04-12T05:53:26;9.70;99.90
36002;DHT22;22070;50.922;5.430;2023-04-12T05:55:54;9.70;99.90
36002;DHT22;22070;50.922;5.430;2023-04-12T05:58:19;9.70;99.90
36002;DHT22;22070;50.922;5.430;2023-04-12T06:00:45;9.80;99.90
36002;DHT22;22070;50.922;5.430;2023-04-12T06:03:11;9.70;99.90
36002;DHT22;22070;50.922;5.430;2023-04-12T06:05:37;9.70;99.90
36002;DHT22;22070;50.922;5.430;2023-04-12T06:08:03;9.80;99.90
36002;DHT22;22070;50.922;5.430;2023-04-12T06:10:30;9.90;99.90
36002;DHT22;22070;50.922;5.430;2023-04-12T06:12:55;9.80;99.90
36002;DHT22;22070;50.922;5.430;2023-04-12T06:15:21;9.80;99.90
36002;DHT22;22070;50.922;5.430;2023-04-12T06:17:47;9.80;99.90
36002;DHT22;22070;50.922;5.430;2023-04-12T06:20:13;9.80;99.90
36002;DHT22;22070;50.922;5.430;2023-04-12T06:22:39;9.80;99.90
36002;DHT22;22070;50.922;5.430;2023-04-12T06:25:05;9.70;99.90
36002;DHT22;22070;50.922;5.430;2023-04-12T06:27:31;9.70;99.90
36002;DHT22;22070;50.922;5.430;2023-04-12T06:29:56;9.80;99.90
36002;DHT22;22070;50.922;5.430;2023-04-12T06:32:22;9.80;99.90
36002;DHT22;22070;50.922;5.430;2023-04-12T06:34:48;9.80;99.90
36002;DHT22;22070;50.922;5.430;2023-04-12T06:37:17;9.80;99.90
36002;DHT22;22070;50.922;5.430;2023-04-12T06:39:42;10.00;99.90
36002;DHT22;22070;50.922;5.430;2023-04-12T06:42:08;10.00;99.90
36002;DHT22;22070;50.922;5.430;2023-04-12T06:44:34;10.00;99.90
36002;DHT22;22070;50.922;5.430;2023-04-12T06:46:59;10.00;99.90
36002;DHT22;22070;50.922;5.430;2023-04-12T06:49:25;10.00;99.90
36002;DHT22;22070;50.922;5.430;2023-04-12T06:51:51;10.00;99.90
36002;DHT22;22070;50.922;5.430;2023-04-12T06:54:17;10.10;99.90
36002;DHT22;22070;50.922;5.430;2023-04-12T06:56:42;10.00;99.90
36002;DHT22;22070;50.922;5.430;2023-04-12T06:59:08;10.00;99.90
36002;DHT22;22070;50.922;5.430;2023-04-12T07:01:34;10.00;99.90
36002;DHT22;22070;50.922;5.430;2023-04-12T07:04:00;9.90;99.90
36002;DHT22;22070;50.922;5.430;2023-04-12T07:06:27;9.90;99.90
36002;DHT22;22070;50.922;5.430;2023-04-12T07:08:53;10.00;99.90
36002;DHT22;22070;50.922;5.430;2023-04-12T07:11:20;10.30;99.90
36002;DHT22;22070;50.922;5.430;2023-04-12T07:13:47;10.30;99.90
36002;DHT22;22070;50.922;5.430;2023-04-12T07:16:12;10.20;99.90
36002;DHT22;22070;50.922;5.430;2023-04-12T07:18:38;10.10;99.90
36002;DHT22;22070;50.922;5.430;2023-04-12T07:21:04;10.20;99.90
36002;DHT22;22070;50.922;5.430;2023-04-12T07:23:30;10.40;99.90
36002;DHT22;22070;50.922;5.430;2023-04-12T07:26:00;10.30;99.90
36002;DHT22;22070;50.922;5.430;2023-04-12T07:28:26;10.10;99.90
36002;DHT22;22070;50.922;5.430;2023-04-12T07:30:52;10.00;99.90
36002;DHT22;22070;50.922;5.430;2023-04-12T07:33:18;9.80;99.90
36002;DHT22;22070;50.922;5.430;2023-04-12T07:35:43;9.80;99.90
36002;DHT22;22070;50.922;5.430;2023-04-12T07:38:09;9.70;99.90
36002;DHT22;22070;50.922;5.430;2023-04-12T07:40:35;9.60;99.90
36002;DHT22;22070;50.922;5.430;2023-04-12T07:43:00;9.60;99.90
36002;DHT22;22070;50.922;5.430;2023-04-12T07:45:26;9.60;99.90
36002;DHT22;22070;50.922;5.430;2023-04-12T07:47:52;9.60;99.90
36002;DHT22;22070;50.922;5.430;2023-04-12T07:50:17;9.70;99.90
36002;DHT22;22070;50.922;5.430;2023-04-12T07:52:43;9.80;99.90
36002;DHT22;22070;50.922;5.430;2023-04-12T07:55:09;9.80;99.90
36002;DHT22;22070;50.922;5.430;2023-04-12T07:57:39;9.80;99.90
36002;DHT22;22070;50.922;5.430;2023-04-12T08:00:30;9.80;99.90
36002;DHT22;22070;50.922;5.430;2023-04-12T08:02:58;9.80;99.90
36002;DHT22;22070;50.922;5.430;2023-04-12T08:05:25;9.90;99.90
36002;DHT22;22070;50.922;5.430;2023-04-12T08:07:55;10.00;99.90
36002;DHT22;22070;50.922;5.430;2023-04-12T08:10:20;10.40;99.90
36002;DHT22;22070;50.922;5.430;2023-04-12T08:12:48;9.60;99.90
36002;DHT22;22070;50.922;5.430;2023-04-12T08:15:13;10.20;99.90
36002;DHT22;22070;50.922;5.430;2023-04-12T08:17:40;10.20;99.90
36002;DHT22;22070;50.922;5.430;2023-04-12T08:20:09;10.20;99.90
36002;DHT22;22070;50.922;5.430;2023-04-12T08:22:35;10.30;99.90
36002;DHT22;22070;50.922;5.430;2023-04-12T08:25:01;10.20;99.90
36002;DHT22;22070;50.922;5.430;2023-04-12T08:27:28;10.10;99.90
36002;DHT22;22070;50.922;5.430;2023-04-12T08:29:56;10.00;99.90
36002;DHT22;22070;50.922;5.430;2023-04-12T08:32:24;10.00;99.90
36002;DHT22;22070;50.922;5.430;2023-04-12T08:34:51;10.00;99.90
36002;DHT22;22070;50.922;5.430;2023-04-12T08:37:20;9.90;99.90
36002;DHT22;22070;50.922;5.430;2023-04-12T08:39:46;9.90;99.90
36002;DHT22;22070;50.922;5.430;2023-04-12T08:42:15;9.90;99.90
36002;DHT22;22070;50.922;5.430;2023-04-12T08:44:41;9.90;99.90
36002;DHT22;22070;50.922;5.430;2023-04-12T08:47:09;9.90;99.90
36002;DHT22;22070;50.922;5.430;2023-04-12T08:49:38;9.80;99.90
36002;DHT22;22070;50.922;5.430;2023-04-12T08:52:08;9.90;99.90
36002;DHT22;22070;50.922;5.430;2023-04-12T08:54:34;10.00;99.90
36002;DHT22;22070;50.922;5.430;2023-04-12T08:57:03;10.10;99.90
36002;DHT22;22070;50.922;5.430;2023-04-12T08:59:31;10.20;99.90
36002;DHT22;22070;50.922;5.430;2023-04-12T09:01:58;10.40;99.90
36002;DHT22;22070;50.922;5.430;2023-04-12T09:04:24;10.40;99.90
36002;DHT22;22070;50.922;5.430;2023-04-12T09:06:51;10.30;99.90
36002;DHT22;22070;50.922;5.430;2023-04-12T09:09:17;10.50;99.90
36002;DHT22;22070;50.922;5.430;2023-04-12T09:11:42;10.50;99.90
36002;DHT22;22070;50.922;5.430;2023-04-12T09:14:22;10.60;99.90
36002;DHT22;22070;50.922;5.430;2023-04-12T09:16:48;10.60;99.90
36002;DHT22;22070;50.922;5.430;2023-04-12T09:19:14;10.80;99.90
36002;DHT22;22070;50.922;5.430;2023-04-12T09:21:54;11.00;99.90
36002;DHT22;22070;50.922;5.430;2023-04-12T09:24:20;11.10;99.90
36002;DHT22;22070;50.922;5.430;2023-04-12T09:27:02;11.20;99.90
36002;DHT22;22070;50.922;5.430;2023-04-12T09:29:29;11.30;99.90
36002;DHT22;22070;50.922;5.430;2023-04-12T09:34:21;11.50;99.90
36002;DHT22;22070;50.922;5.430;2023-04-12T09:36:47;11.50;99.90
36002;DHT22;22070;50.922;5.430;2023-04-12T09:39:12;11.70;99.90
36002;DHT22;22070;50.922;5.430;2023-04-12T09:41:38;11.70;99.90
36002;DHT22;22070;50.922;5.430;2023-04-12T09:44:03;11.80;99.90
36002;DHT22;22070;50.922;5.430;2023-04-12T09:46:29;11.80;99.90
36002;DHT22;22070;50.922;5.430;2023-04-12T09:48:56;11.70;99.90
36002;DHT22;22070;50.922;5.430;2023-04-12T09:51:31;11.60;99.90
36002;DHT22;22070;50.922;5.430;2023-04-12T09:54:02;11.70;99.90
36002;DHT22;22070;50.922;5.430;2023-04-12T09:56:33;11.90;99.90
36002;DHT22;22070;50.922;5.430;2023-04-12T09:59:05;12.10;99.90
36002;DHT22;22070;50.922;5.430;2023-04-12T10:01:37;12.10;99.90
36002;DHT22;22070;50.922;5.430;2023-04-12T10:04:04;12.10;99.90
36002;DHT22;22070;50.922;5.430;2023-04-12T10:06:32;12.10;99.90
36002;DHT22;22070;50.922;5.430;2023-04-12T10:08:58;12.10;99.90
36002;DHT22;22070;50.922;5.430;2023-04-12T10:11:27;12.10;99.90
36002;DHT22;22070;50.922;5.430;2023-04-12T10:13:55;12.00;99.90
36002;DHT22;22070;50.922;5.430;2023-04-12T10:16:21;12.10;99.90
36002;DHT22;22070;50.922;5.430;2023-04-12T10:18:48;12.00;99.90
36002;DHT22;22070;50.922;5.430;2023-04-12T10:21:14;11.70;99.90
36002;DHT22;22070;50.922;5.430;2023-04-12T10:23:43;11.60;99.90
36002;DHT22;22070;50.922;5.430;2023-04-12T10:26:09;11.60;99.90
36002;DHT22;22070;50.922;5.430;2023-04-12T10:28:35;11.50;99.90
36002;DHT22;22070;50.922;5.430;2023-04-12T10:31:27;11.50;99.90
36002;DHT22;22070;50.922;5.430;2023-04-12T10:33:54;11.50;99.90
36002;DHT22;22070;50.922;5.430;2023-04-12T10:36:50;11.60;99.90
36002;DHT22;22070;50.922;5.430;2023-04-12T10:39:15;11.60;99.90
36002;DHT22;22070;50.922;5.430;2023-04-12T10:44:47;11.50;99.90
36002;DHT22;22070;50.922;5.430;2023-04-12T10:47:13;11.60;99.90
36002;DHT22;22070;50.922;5.430;2023-04-12T10:49:39;11.60;99.90
36002;DHT22;22070;50.922;5.430;2023-04-12T10:54:33;11.50;99.90
36002;DHT22;22070;50.922;5.430;2023-04-12T10:57:00;11.60;99.90
36002;DHT22;22070;50.922;5.430;2023-04-12T10:59:49;11.70;99.90
36002;DHT22;22070;50.922;5.430;2023-04-12T11:02:16;11.80;99.90
36002;DHT22;22070;50.922;5.430;2023-04-12T11:05:07;11.80;99.90
36002;DHT22;22070;50.922;5.430;2023-04-12T11:07:44;12.00;99.90
36002;DHT22;22070;50.922;5.430;2023-04-12T11:10:17;12.10;99.90
36002;DHT22;22070;50.922;5.430;2023-04-12T11:12:51;12.20;99.90
36002;DHT22;22070;50.922;5.430;2023-04-12T11:15:17;12.30;99.90
36002;DHT22;22070;50.922;5.430;2023-04-12T11:17:55;12.40;99.90
36002;DHT22;22070;50.922;5.430;2023-04-12T11:20:21;12.30;99.90
36002;DHT22;22070;50.922;5.430;2023-04-12T11:22:48;12.40;99.90
36002;DHT22;22070;50.922;5.430;2023-04-12T11:25:16;12.40;99.90
36002;DHT22;22070;50.922;5.430;2023-04-12T11:27:51;12.30;99.90
36002;DHT22;22070;50.922;5.430;2023-04-12T11:30:19;12.30;99.90
36002;DHT22;22070;50.922;5.430;2023-04-12T11:32:45;12.30;99.90
36002;DHT22;22070;50.922;5.430;2023-04-12T11:35:14;12.50;99.90
36002;DHT22;22070;50.922;5.430;2023-04-12T11:37:40;12.40;99.90
36002;DHT22;22070;50.922;5.430;2023-04-12T11:40:08;12.60;99.90
36002;DHT22;22070;50.922;5.430;2023-04-12T11:42:34;12.70;99.90
36002;DHT22;22070;50.922;5.430;2023-04-12T11:45:00;12.70;99.90
36002;DHT22;22070;50.922;5.430;2023-04-12T11:47:26;12.70;99.90
36002;DHT22;22070;50.922;5.430;2023-04-12T11:49:56;12.70;99.90
36002;DHT22;22070;50.922;5.430;2023-04-12T11:52:29;12.60;99.90
36002;DHT22;22070;50.922;5.430;2023-04-12T11:55:02;12.40;99.90
36002;DHT22;22070;50.922;5.430;2023-04-12T11:57:29;12.00;99.90
36002;DHT22;22070;50.922;5.430;2023-04-12T11:59:56;11.30;99.90
36002;DHT22;22070;50.922;5.430;2023-04-12T12:02:23;11.00;99.90
36002;DHT22;22070;50.922;5.430;2023-04-12T12:04:48;10.80;99.90
36002;DHT22;22070;50.922;5.430;2023-04-12T12:07:16;10.80;99.90
36002;DHT22;22070;50.922;5.430;2023-04-12T12:09:43;11.00;99.90
36002;DHT22;22070;50.922;5.430;2023-04-12T12:12:09;11.20;99.90
36002;DHT22;22070;50.922;5.430;2023-04-12T12:14:35;11.10;99.90
36002;DHT22;22070;50.922;5.430;2023-04-12T12:17:02;11.10;99.90
36002;DHT22;22070;50.922;5.430;2023-04-12T12:19:37;11.20;99.90
36002;DHT22;22070;50.922;5.430;2023-04-12T12:24:32;11.50;99.90
36002;DHT22;22070;50.922;5.430;2023-04-12T12:27:03;11.60;99.90
36002;DHT22;22070;50.922;5.430;2023-04-12T12:29:36;11.60;99.90
36002;DHT22;22070;50.922;5.430;2023-04-12T12:32:09;11.90;99.90
36002;DHT22;22070;50.922;5.430;2023-04-12T12:34:35;12.00;99.90
36002;DHT22;22070;50.922;5.430;2023-04-12T12:37:01;12.00;99.90
36002;DHT22;22070;50.922;5.430;2023-04-12T12:39:27;11.90;99.90
36002;DHT22;22070;50.922;5.430;2023-04-12T12:41:53;11.80;99.90
36002;DHT22;22070;50.922;5.430;2023-04-12T12:44:23;11.80;99.90
36002;DHT22;22070;50.922;5.430;2023-04-12T12:46:49;11.70;99.90
36002;DHT22;22070;50.922;5.430;2023-04-12T12:49:15;11.80;99.90
36002;DHT22;22070;50.922;5.430;2023-04-12T12:51:41;11.90;99.90
36002;DHT22;22070;50.922;5.430;2023-04-12T12:54:07;11.90;99.90
36002;DHT22;22070;50.922;5.430;2023-04-12T12:56:32;11.90;99.90
36002;DHT22;22070;50.922;5.430;2023-04-12T12:59:00;11.80;99.90
36002;DHT22;22070;50.922;5.430;2023-04-12T13:01:26;11.80;99.90
36002;DHT22;22070;50.922;5.430;2023-04-12T13:03:54;11.70;99.90
36002;DHT22;22070;50.922;5.430;2023-04-12T13:06:21;11.60;99.90
36002;DHT22;22070;50.922;5.430;2023-04-12T13:08:46;11.60;99.90
36002;DHT22;22070;50.922;5.430;2023-04-12T13:11:12;11.70;99.90
36002;DHT22;22070;50.922;5.430;2023-04-12T13:13:37;11.60;99.90
36002;DHT22;22070;50.922;5.430;2023-04-12T13:16:03;11.70;99.90
36002;DHT22;22070;50.922;5.430;2023-04-12T13:18:29;11.70;99.90
36002;DHT22;22070;50.922;5.430;2023-04-12T13:20:54;11.90;99.90
36002;DHT22;22070;50.922;5.430;2023-04-12T13:23:20;12.10;99.90
36002;DHT22;22070;50.922;5.430;2023-04-12T13:25:46;11.90;99.90
36002;DHT22;22070;50.922;5.430;2023-04-12T13:28:12;11.60;99.90
36002;DHT22;22070;50.922;5.430;2023-04-12T13:30:37;11.30;99.90
36002;DHT22;22070;50.922;5.430;2023-04-12T13:33:03;11.40;99.90
36002;DHT22;22070;50.922;5.430;2023-04-12T13:35:29;11.30;99.90
36002;DHT22;22070;50.922;5.430;2023-04-12T13:37:54;11.20;99.90
36002;DHT22;22070;50.922;5.430;2023-04-12T13:40:20;11.00;99.90
36002;DHT22;22070;50.922;5.430;2023-04-12T13:42:46;10.90;99.90
36002;DHT22;22070;50.922;5.430;2023-04-12T13:45:11;10.70;99.90
36002;DHT22;22070;50.922;5.430;2023-04-12T13:47:37;10.50;99.90
36002;DHT22;22070;50.922;5.430;2023-04-12T13:50:03;10.30;99.90
36002;DHT22;22070;50.922;5.430;2023-04-12T13:52:29;10.00;99.90
36002;DHT22;22070;50.922;5.430;2023-04-12T13:54:55;10.00;99.90
36002;DHT22;22070;50.922;5.430;2023-04-12T13:57:22;10.10;99.90
36002;DHT22;22070;50.922;5.430;2023-04-12T13:59:47;10.20;99.90
36002;DHT22;22070;50.922;5.430;2023-04-12T14:02:13;10.30;99.90
36002;DHT22;22070;50.922;5.430;2023-04-12T14:04:49;10.40;99.90
36002;DHT22;22070;50.922;5.430;2023-04-12T14:07:18;10.60;99.90
36002;DHT22;22070;50.922;5.430;2023-04-12T14:09:44;10.60;99.90
36002;DHT22;22070;50.922;5.430;2023-04-12T14:12:10;10.90;99.90
36002;DHT22;22070;50.922;5.430;2023-04-12T14:14:35;10.90;99.90
36002;DHT22;22070;50.922;5.430;2023-04-12T14:17:01;11.10;99.90
36002;DHT22;22070;50.922;5.430;2023-04-12T14:19:27;11.10;99.90
36002;DHT22;22070;50.922;5.430;2023-04-12T14:21:53;11.20;99.90
36002;DHT22;22070;50.922;5.430;2023-04-12T14:24:20;11.20;99.90
36002;DHT22;22070;50.922;5.430;2023-04-12T14:26:46;11.30;99.90
36002;DHT22;22070;50.922;5.430;2023-04-12T14:29:13;11.20;99.90
36002;DHT22;22070;50.922;5.430;2023-04-12T14:31:39;11.40;99.90
36002;DHT22;22070;50.922;5.430;2023-04-12T14:34:05;11.40;99.90
36002;DHT22;22070;50.922;5.430;2023-04-12T14:36:33;11.30;99.90
36002;DHT22;22070;50.922;5.430;2023-04-12T14:38:59;11.20;99.90
36002;DHT22;22070;50.922;5.430;2023-04-12T14:41:25;11.20;99.90
36002;DHT22;22070;50.922;5.430;2023-04-12T14:43:51;11.10;99.90
36002;DHT22;22070;50.922;5.430;2023-04-12T14:46:17;11.10;99.90
36002;DHT22;22070;50.922;5.430;2023-04-12T14:48:43;11.20;99.90
36002;DHT22;22070;50.922;5.430;2023-04-12T14:51:11;11.20;99.90
36002;DHT22;22070;50.922;5.430;2023-04-12T14:53:37;11.10;99.90
36002;DHT22;22070;50.922;5.430;2023-04-12T14:56:02;11.10;99.90
36002;DHT22;22070;50.922;5.430;2023-04-12T14:58:28;11.10;99.90
36002;DHT22;22070;50.922;5.430;2023-04-12T15:00:56;11.20;99.90
36002;DHT22;22070;50.922;5.430;2023-04-12T15:03:22;11.10;99.90
36002;DHT22;22070;50.922;5.430;2023-04-12T15:05:48;11.20;99.90
36002;DHT22;22070;50.922;5.430;2023-04-12T15:08:14;10.60;99.90
36002;DHT22;22070;50.922;5.430;2023-04-12T15:10:39;9.90;99.90
36002;DHT22;22070;50.922;5.430;2023-04-12T15:13:05;9.50;99.90
36002;DHT22;22070;50.922;5.430;2023-04-12T15:15:31;9.20;99.90
36002;DHT22;22070;50.922;5.430;2023-04-12T15:17:56;9.20;99.90
36002;DHT22;22070;50.922;5.430;2023-04-12T15:20:22;9.40;99.90
36002;DHT22;22070;50.922;5.430;2023-04-12T15:22:48;9.50;99.90
36002;DHT22;22070;50.922;5.430;2023-04-12T15:25:13;9.80;99.90
36002;DHT22;22070;50.922;5.430;2023-04-12T15:27:39;10.00;99.90
36002;DHT22;22070;50.922;5.430;2023-04-12T15:30:05;10.30;99.90
36002;DHT22;22070;50.922;5.430;2023-04-12T15:32:35;10.70;99.90
36002;DHT22;22070;50.922;5.430;2023-04-12T15:35:06;11.00;99.90
36002;DHT22;22070;50.922;5.430;2023-04-12T15:37:32;11.20;99.90
36002;DHT22;22070;50.922;5.430;2023-04-12T15:40:01;11.40;99.90
36002;DHT22;22070;50.922;5.430;2023-04-12T15:42:39;11.70;99.90
36002;DHT22;22070;50.922;5.430;2023-04-12T15:45:06;12.00;99.90
36002;DHT22;22070;50.922;5.430;2023-04-12T15:47:32;12.10;99.90
36002;DHT22;22070;50.922;5.430;2023-04-12T15:49:58;12.40;99.90
36002;DHT22;22070;50.922;5.430;2023-04-12T15:52:23;12.60;99.90
36002;DHT22;22070;50.922;5.430;2023-04-12T15:54:49;12.60;99.90
36002;DHT22;22070;50.922;5.430;2023-04-12T15:57:16;12.80;99.90
36002;DHT22;22070;50.922;5.430;2023-04-12T15:59:41;12.90;99.90
36002;DHT22;22070;50.922;5.430;2023-04-12T16:02:07;13.10;99.90
36002;DHT22;22070;50.922;5.430;2023-04-12T16:04:35;13.30;99.90